sensor_id;sensor_type;location;lat;lon;timestamp;P1;durP1;ratioP1;P2;durP2;ratioP2
64667;SDS011;51077;42.716;23.344;2023-06-22T00:01:46;7.57;;;5.90;;
64667;SDS011;51077;42.716;23.344;2023-06-22T00:04:11;7.80;;;5.43;;
64667;SDS011;51077;42.716;23.344;2023-06-22T00:06:37;8.20;;;5.87;;
64667;SDS011;51077;42.716;23.344;2023-06-22T00:09:02;6.90;;;5.77;;
64667;SDS011;51077;42.716;23.344;2023-06-22T00:11:28;8.67;;;5.20;;
64667;SDS011;51077;42.716;23.344;2023-06-22T00:13:53;6.77;;;6.03;;
64667;SDS011;51077;42.716;23.344;2023-06-22T00:16:19;7.70;;;5.80;;
64667;SDS011;51077;42.716;23.344;2023-06-22T00:18:44;6.93;;;5.30;;
64667;SDS011;51077;42.716;23.344;2023-06-22T00:21:12;6.80;;;5.40;;
64667;SDS011;51077;42.716;23.344;2023-06-22T00:23:38;6.90;;;5.88;;
64667;SDS011;51077;42.716;23.344;2023-06-22T00:26:03;6.63;;;5.43;;
64667;SDS011;51077;42.716;23.344;2023-06-22T00:28:29;5.87;;;4.87;;
64667;SDS011;51077;42.716;23.344;2023-06-22T00:30:54;6.97;;;5.20;;
64667;SDS011;51077;42.716;23.344;2023-06-22T00:33:19;7.57;;;5.50;;
64667;SDS011;51077;42.716;23.344;2023-06-22T00:35:45;7.57;;;5.53;;
64667;SDS011;51077;42.716;23.344;2023-06-22T00:38:10;7.83;;;5.50;;
64667;SDS011;51077;42.716;23.344;2023-06-22T00:40:36;6.63;;;5.90;;
64667;SDS011;51077;42.716;23.344;2023-06-22T00:43:02;6.40;;;5.67;;
64667;SDS011;51077;42.716;23.344;2023-06-22T00:45:28;6.20;;;5.20;;
64667;SDS011;51077;42.716;23.344;2023-06-22T00:47:55;9.47;;;5.87;;
64667;SDS011;51077;42.716;23.344;2023-06-22T00:50:23;7.22;;;4.95;;
64667;SDS011;51077;42.716;23.344;2023-06-22T00:52:53;6.47;;;5.40;;
64667;SDS011;51077;42.716;23.344;2023-06-22T00:55:21;5.68;;;5.07;;
64667;SDS011;51077;42.716;23.344;2023-06-22T00:57:48;6.15;;;5.53;;
64667;SDS011;51077;42.716;23.344;2023-06-22T01:00:16;7.20;;;5.40;;
64667;SDS011;51077;42.716;23.344;2023-06-22T01:02:44;6.25;;;5.28;;
64667;SDS011;51077;42.716;23.344;2023-06-22T01:05:17;6.55;;;5.05;;
64667;SDS011;51077;42.716;23.344;2023-06-22T01:18:28;5.95;;;5.00;;
64667;SDS011;51077;42.716;23.344;2023-06-22T01:20:56;6.05;;;4.95;;
64667;SDS011;51077;42.716;23.344;2023-06-22T01:23:27;6.72;;;5.20;;
64667;SDS011;51077;42.716;23.344;2023-06-22T01:26:08;5.90;;;5.15;;
64667;SDS011;51077;42.716;23.344;2023-06-22T01:31:10;6.50;;;5.33;;
64667;SDS011;51077;42.716;23.344;2023-06-22T01:33:37;5.35;;;4.68;;
64667;SDS011;51077;42.716;23.344;2023-06-22T01:36:06;6.43;;;5.10;;
64667;SDS011;51077;42.716;23.344;2023-06-22T01:38:32;5.60;;;4.78;;
64667;SDS011;51077;42.716;23.344;2023-06-22T01:40:58;7.65;;;5.18;;
64667;SDS011;51077;42.716;23.344;2023-06-22T01:43:26;6.20;;;5.28;;
64667;SDS011;51077;42.716;23.344;2023-06-22T01:45:53;5.35;;;4.80;;
64667;SDS011;51077;42.716;23.344;2023-06-22T01:48:20;6.13;;;5.32;;
64667;SDS011;51077;42.716;23.344;2023-06-22T01:50:45;6.57;;;4.73;;
64667;SDS011;51077;42.716;23.344;2023-06-22T01:53:12;6.22;;;5.40;;
64667;SDS011;51077;42.716;23.344;2023-06-22T01:55:37;6.23;;;5.13;;
64667;SDS011;51077;42.716;23.344;2023-06-22T01:58:02;5.83;;;4.90;;
64667;SDS011;51077;42.716;23.344;2023-06-22T02:00:28;5.73;;;5.13;;
64667;SDS011;51077;42.716;23.344;2023-06-22T02:03:07;6.53;;;5.20;;
64667;SDS011;51077;42.716;23.344;2023-06-22T02:05:36;5.85;;;4.95;;
64667;SDS011;51077;42.716;23.344;2023-06-22T02:08:08;6.30;;;4.50;;
64667;SDS011;51077;42.716;23.344;2023-06-22T02:10:37;6.38;;;4.85;;
64667;SDS011;51077;42.716;23.344;2023-06-22T02:13:06;7.35;;;4.93;;
64667;SDS011;51077;42.716;23.344;2023-06-22T02:15:33;7.07;;;4.88;;
64667;SDS011;51077;42.716;23.344;2023-06-22T02:17:59;6.27;;;5.10;;
64667;SDS011;51077;42.716;23.344;2023-06-22T02:20:25;7.57;;;5.40;;
64667;SDS011;51077;42.716;23.344;2023-06-22T02:22:50;6.17;;;4.83;;
64667;SDS011;51077;42.716;23.344;2023-06-22T02:25:15;6.10;;;4.90;;
64667;SDS011;51077;42.716;23.344;2023-06-22T02:27:41;6.50;;;4.97;;
64667;SDS011;51077;42.716;23.344;2023-06-22T02:30:09;5.60;;;4.77;;
64667;SDS011;51077;42.716;23.344;2023-06-22T02:32:35;6.65;;;5.07;;
64667;SDS011;51077;42.716;23.344;2023-06-22T02:35:01;6.00;;;4.70;;
64667;SDS011;51077;42.716;23.344;2023-06-22T02:37:29;6.75;;;5.13;;
64667;SDS011;51077;42.716;23.344;2023-06-22T02:39:56;5.30;;;4.80;;
64667;SDS011;51077;42.716;23.344;2023-06-22T02:42:21;6.07;;;5.00;;
64667;SDS011;51077;42.716;23.344;2023-06-22T02:44:46;6.77;;;4.87;;
64667;SDS011;51077;42.716;23.344;2023-06-22T02:47:12;6.97;;;5.30;;
64667;SDS011;51077;42.716;23.344;2023-06-22T02:49:37;6.00;;;5.00;;
64667;SDS011;51077;42.716;23.344;2023-06-22T02:52:03;6.17;;;4.90;;
64667;SDS011;51077;42.716;23.344;2023-06-22T02:54:29;6.67;;;5.10;;
64667;SDS011;51077;42.716;23.344;2023-06-22T02:56:54;5.93;;;5.17;;
64667;SDS011;51077;42.716;23.344;2023-06-22T02:59:19;6.43;;;5.17;;
64667;SDS011;51077;42.716;23.344;2023-06-22T03:01:49;5.30;;;4.60;;
64667;SDS011;51077;42.716;23.344;2023-06-22T03:04:15;6.00;;;5.07;;
64667;SDS011;51077;42.716;23.344;2023-06-22T03:06:41;5.57;;;4.90;;
64667;SDS011;51077;42.716;23.344;2023-06-22T03:09:06;5.83;;;4.50;;
64667;SDS011;51077;42.716;23.344;2023-06-22T03:11:32;7.17;;;4.87;;
64667;SDS011;51077;42.716;23.344;2023-06-22T03:13:58;7.88;;;5.95;;
64667;SDS011;51077;42.716;23.344;2023-06-22T03:16:25;6.45;;;5.18;;
64667;SDS011;51077;42.716;23.344;2023-06-22T03:18:51;5.83;;;4.80;;
64667;SDS011;51077;42.716;23.344;2023-06-22T03:21:18;6.63;;;4.90;;
64667;SDS011;51077;42.716;23.344;2023-06-22T03:23:43;7.60;;;5.03;;
64667;SDS011;51077;42.716;23.344;2023-06-22T03:26:09;6.23;;;5.53;;
64667;SDS011;51077;42.716;23.344;2023-06-22T03:28:35;7.05;;;5.03;;
64667;SDS011;51077;42.716;23.344;2023-06-22T03:31:00;6.63;;;5.10;;
64667;SDS011;51077;42.716;23.344;2023-06-22T03:33:26;7.50;;;4.87;;
64667;SDS011;51077;42.716;23.344;2023-06-22T03:35:51;7.50;;;5.00;;
64667;SDS011;51077;42.716;23.344;2023-06-22T03:38:17;8.30;;;5.63;;
64667;SDS011;51077;42.716;23.344;2023-06-22T03:40:42;7.43;;;5.70;;
64667;SDS011;51077;42.716;23.344;2023-06-22T03:43:08;6.17;;;4.93;;
64667;SDS011;51077;42.716;23.344;2023-06-22T03:45:33;8.77;;;5.20;;
64667;SDS011;51077;42.716;23.344;2023-06-22T03:48:00;6.53;;;4.83;;
64667;SDS011;51077;42.716;23.344;2023-06-22T03:50:25;6.38;;;5.35;;
64667;SDS011;51077;42.716;23.344;2023-06-22T03:52:51;7.03;;;4.87;;
64667;SDS011;51077;42.716;23.344;2023-06-22T03:55:17;6.60;;;5.18;;
64667;SDS011;51077;42.716;23.344;2023-06-22T03:57:43;7.73;;;5.27;;
64667;SDS011;51077;42.716;23.344;2023-06-22T04:00:09;7.38;;;5.88;;
64667;SDS011;51077;42.716;23.344;2023-06-22T04:02:35;7.28;;;5.50;;
64667;SDS011;51077;42.716;23.344;2023-06-22T04:05:01;5.60;;;5.00;;
64667;SDS011;51077;42.716;23.344;2023-06-22T04:07:26;7.20;;;5.20;;
64667;SDS011;51077;42.716;23.344;2023-06-22T04:09:51;8.40;;;5.20;;
64667;SDS011;51077;42.716;23.344;2023-06-22T04:12:17;7.77;;;5.50;;
64667;SDS011;51077;42.716;23.344;2023-06-22T04:14:42;6.50;;;5.60;;
64667;SDS011;51077;42.716;23.344;2023-06-22T04:17:08;6.27;;;4.87;;
64667;SDS011;51077;42.716;23.344;2023-06-22T04:19:33;6.50;;;5.13;;
64667;SDS011;51077;42.716;23.344;2023-06-22T04:21:58;7.10;;;5.37;;
64667;SDS011;51077;42.716;23.344;2023-06-22T04:24:24;7.97;;;5.83;;
64667;SDS011;51077;42.716;23.344;2023-06-22T04:26:49;6.83;;;5.40;;
64667;SDS011;51077;42.716;23.344;2023-06-22T04:29:18;8.45;;;5.80;;
64667;SDS011;51077;42.716;23.344;2023-06-22T04:31:44;6.93;;;5.27;;
64667;SDS011;51077;42.716;23.344;2023-06-22T04:34:09;6.07;;;5.33;;
64667;SDS011;51077;42.716;23.344;2023-06-22T04:39:08;7.43;;;6.05;;
64667;SDS011;51077;42.716;23.344;2023-06-22T04:41:38;6.22;;;4.78;;
64667;SDS011;51077;42.716;23.344;2023-06-22T04:44:14;7.22;;;5.47;;
64667;SDS011;51077;42.716;23.344;2023-06-22T04:46:51;6.40;;;5.65;;
64667;SDS011;51077;42.716;23.344;2023-06-22T04:51:57;10.40;;;5.22;;
64667;SDS011;51077;42.716;23.344;2023-06-22T04:54:26;6.30;;;5.32;;
64667;SDS011;51077;42.716;23.344;2023-06-22T04:56:52;11.17;;;5.93;;
64667;SDS011;51077;42.716;23.344;2023-06-22T04:59:24;9.32;;;5.43;;
64667;SDS011;51077;42.716;23.344;2023-06-22T05:01:55;6.32;;;5.30;;
64667;SDS011;51077;42.716;23.344;2023-06-22T05:04:21;6.97;;;5.30;;
64667;SDS011;51077;42.716;23.344;2023-06-22T05:06:48;7.85;;;5.35;;
64667;SDS011;51077;42.716;23.344;2023-06-22T05:09:14;7.30;;;5.63;;
64667;SDS011;51077;42.716;23.344;2023-06-22T05:11:39;7.40;;;5.53;;
64667;SDS011;51077;42.716;23.344;2023-06-22T05:14:05;6.00;;;5.33;;
64667;SDS011;51077;42.716;23.344;2023-06-22T05:16:30;7.90;;;5.37;;
64667;SDS011;51077;42.716;23.344;2023-06-22T05:18:56;8.13;;;5.73;;
64667;SDS011;51077;42.716;23.344;2023-06-22T05:21:25;7.70;;;5.53;;
64667;SDS011;51077;42.716;23.344;2023-06-22T05:23:52;8.20;;;5.72;;
64667;SDS011;51077;42.716;23.344;2023-06-22T05:26:19;7.95;;;4.97;;
64667;SDS011;51077;42.716;23.344;2023-06-22T05:28:45;6.47;;;4.70;;
64667;SDS011;51077;42.716;23.344;2023-06-22T05:31:15;7.13;;;5.63;;
64667;SDS011;51077;42.716;23.344;2023-06-22T05:33:41;7.60;;;5.00;;
64667;SDS011;51077;42.716;23.344;2023-06-22T05:36:07;6.32;;;5.20;;
64667;SDS011;51077;42.716;23.344;2023-06-22T05:38:33;8.80;;;5.80;;
64667;SDS011;51077;42.716;23.344;2023-06-22T05:40:59;6.23;;;5.10;;
64667;SDS011;51077;42.716;23.344;2023-06-22T05:43:24;5.83;;;5.23;;
64667;SDS011;51077;42.716;23.344;2023-06-22T05:45:50;9.37;;;5.43;;
64667;SDS011;51077;42.716;23.344;2023-06-22T05:48:15;7.40;;;5.47;;
64667;SDS011;51077;42.716;23.344;2023-06-22T05:50:41;7.03;;;5.33;;
64667;SDS011;51077;42.716;23.344;2023-06-22T05:53:07;7.18;;;5.32;;
64667;SDS011;51077;42.716;23.344;2023-06-22T05:55:33;7.07;;;5.93;;
64667;SDS011;51077;42.716;23.344;2023-06-22T05:57:58;6.33;;;5.00;;
64667;SDS011;51077;42.716;23.344;2023-06-22T06:00:24;7.00;;;5.30;;
64667;SDS011;51077;42.716;23.344;2023-06-22T06:02:49;7.13;;;5.83;;
64667;SDS011;51077;42.716;23.344;2023-06-22T06:05:15;6.90;;;5.33;;
64667;SDS011;51077;42.716;23.344;2023-06-22T06:07:41;7.10;;;5.53;;
64667;SDS011;51077;42.716;23.344;2023-06-22T06:10:07;8.60;;;6.03;;
64667;SDS011;51077;42.716;23.344;2023-06-22T06:12:33;9.73;;;5.35;;
64667;SDS011;51077;42.716;23.344;2023-06-22T06:14:59;8.73;;;5.70;;
64667;SDS011;51077;42.716;23.344;2023-06-22T06:17:24;8.13;;;6.00;;
64667;SDS011;51077;42.716;23.344;2023-06-22T06:19:50;7.37;;;5.87;;
64667;SDS011;51077;42.716;23.344;2023-06-22T06:22:15;6.87;;;5.53;;
64667;SDS011;51077;42.716;23.344;2023-06-22T06:24:40;7.77;;;5.57;;
64667;SDS011;51077;42.716;23.344;2023-06-22T06:27:06;9.57;;;5.70;;
64667;SDS011;51077;42.716;23.344;2023-06-22T06:29:31;9.23;;;6.00;;
64667;SDS011;51077;42.716;23.344;2023-06-22T06:31:57;8.30;;;5.72;;
64667;SDS011;51077;42.716;23.344;2023-06-22T06:34:23;10.20;;;5.80;;
64667;SDS011;51077;42.716;23.344;2023-06-22T06:36:48;6.07;;;5.00;;
64667;SDS011;51077;42.716;23.344;2023-06-22T06:39:14;7.80;;;4.97;;
64667;SDS011;51077;42.716;23.344;2023-06-22T06:41:41;8.13;;;5.82;;
64667;SDS011;51077;42.716;23.344;2023-06-22T06:44:06;7.20;;;5.50;;
64667;SDS011;51077;42.716;23.344;2023-06-22T06:46:32;8.73;;;5.10;;
64667;SDS011;51077;42.716;23.344;2023-06-22T06:48:57;11.03;;;5.83;;
64667;SDS011;51077;42.716;23.344;2023-06-22T06:51:22;6.43;;;5.50;;
64667;SDS011;51077;42.716;23.344;2023-06-22T06:53:48;7.03;;;5.33;;
64667;SDS011;51077;42.716;23.344;2023-06-22T06:56:14;8.55;;;4.75;;
64667;SDS011;51077;42.716;23.344;2023-06-22T06:58:42;10.40;;;5.47;;
64667;SDS011;51077;42.716;23.344;2023-06-22T07:01:10;6.95;;;5.40;;
64667;SDS011;51077;42.716;23.344;2023-06-22T07:03:37;9.75;;;5.93;;
64667;SDS011;51077;42.716;23.344;2023-06-22T07:06:02;6.73;;;5.30;;
64667;SDS011;51077;42.716;23.344;2023-06-22T07:08:28;6.47;;;5.10;;
64667;SDS011;51077;42.716;23.344;2023-06-22T07:10:54;7.43;;;5.67;;
64667;SDS011;51077;42.716;23.344;2023-06-22T07:13:19;7.53;;;5.80;;
64667;SDS011;51077;42.716;23.344;2023-06-22T07:15:45;11.40;;;6.17;;
64667;SDS011;51077;42.716;23.344;2023-06-22T07:18:10;8.07;;;5.90;;
64667;SDS011;51077;42.716;23.344;2023-06-22T07:20:36;9.33;;;5.90;;
64667;SDS011;51077;42.716;23.344;2023-06-22T07:23:02;7.37;;;6.00;;
64667;SDS011;51077;42.716;23.344;2023-06-22T07:25:27;8.30;;;5.97;;
64667;SDS011;51077;42.716;23.344;2023-06-22T07:27:57;8.37;;;6.03;;
64667;SDS011;51077;42.716;23.344;2023-06-22T07:30:28;8.07;;;5.32;;
64667;SDS011;51077;42.716;23.344;2023-06-22T07:32:54;12.57;;;5.78;;
64667;SDS011;51077;42.716;23.344;2023-06-22T07:35:20;7.37;;;5.30;;
64667;SDS011;51077;42.716;23.344;2023-06-22T07:37:45;5.70;;;5.10;;
64667;SDS011;51077;42.716;23.344;2023-06-22T07:40:12;9.10;;;6.30;;
64667;SDS011;51077;42.716;23.344;2023-06-22T07:42:37;8.32;;;6.18;;
64667;SDS011;51077;42.716;23.344;2023-06-22T07:45:03;6.77;;;5.33;;
64667;SDS011;51077;42.716;23.344;2023-06-22T07:47:29;9.73;;;5.70;;
64667;SDS011;51077;42.716;23.344;2023-06-22T07:49:55;9.10;;;6.00;;
64667;SDS011;51077;42.716;23.344;2023-06-22T07:52:23;7.95;;;5.85;;
64667;SDS011;51077;42.716;23.344;2023-06-22T07:54:50;8.13;;;6.18;;
64667;SDS011;51077;42.716;23.344;2023-06-22T07:57:16;9.30;;;6.00;;
64667;SDS011;51077;42.716;23.344;2023-06-22T07:59:41;9.57;;;5.80;;
64667;SDS011;51077;42.716;23.344;2023-06-22T08:02:07;11.23;;;5.93;;
64667;SDS011;51077;42.716;23.344;2023-06-22T08:04:34;9.27;;;5.55;;
64667;SDS011;51077;42.716;23.344;2023-06-22T08:07:00;8.57;;;6.23;;
64667;SDS011;51077;42.716;23.344;2023-06-22T08:09:27;7.90;;;5.97;;
64667;SDS011;51077;42.716;23.344;2023-06-22T08:11:53;7.20;;;5.20;;
64667;SDS011;51077;42.716;23.344;2023-06-22T08:14:20;12.68;;;5.95;;
64667;SDS011;51077;42.716;23.344;2023-06-22T08:16:46;9.97;;;6.70;;
64667;SDS011;51077;42.716;23.344;2023-06-22T08:19:12;7.00;;;6.30;;
64667;SDS011;51077;42.716;23.344;2023-06-22T08:21:37;8.07;;;6.40;;
64667;SDS011;51077;42.716;23.344;2023-06-22T08:24:03;10.00;;;6.20;;
64667;SDS011;51077;42.716;23.344;2023-06-22T08:26:28;7.03;;;5.80;;
64667;SDS011;51077;42.716;23.344;2023-06-22T08:28:54;10.40;;;6.00;;
64667;SDS011;51077;42.716;23.344;2023-06-22T08:31:19;8.33;;;6.07;;
64667;SDS011;51077;42.716;23.344;2023-06-22T08:33:45;9.53;;;6.53;;
64667;SDS011;51077;42.716;23.344;2023-06-22T08:36:11;9.93;;;6.53;;
64667;SDS011;51077;42.716;23.344;2023-06-22T08:38:38;11.10;;;6.57;;
64667;SDS011;51077;42.716;23.344;2023-06-22T08:41:03;9.03;;;6.33;;
64667;SDS011;51077;42.716;23.344;2023-06-22T08:43:29;9.60;;;6.20;;
64667;SDS011;51077;42.716;23.344;2023-06-22T08:45:54;9.13;;;6.37;;
64667;SDS011;51077;42.716;23.344;2023-06-22T08:48:19;7.43;;;6.10;;
64667;SDS011;51077;42.716;23.344;2023-06-22T08:50:45;10.03;;;5.90;;
64667;SDS011;51077;42.716;23.344;2023-06-22T08:53:10;7.80;;;6.43;;
64667;SDS011;51077;42.716;23.344;2023-06-22T08:55:36;8.83;;;5.67;;
64667;SDS011;51077;42.716;23.344;2023-06-22T08:58:01;9.10;;;7.07;;
64667;SDS011;51077;42.716;23.344;2023-06-22T09:00:27;8.70;;;6.07;;
64667;SDS011;51077;42.716;23.344;2023-06-22T09:02:54;6.90;;;5.93;;
64667;SDS011;51077;42.716;23.344;2023-06-22T09:05:24;8.73;;;5.73;;
64667;SDS011;51077;42.716;23.344;2023-06-22T09:07:51;8.57;;;6.30;;
64667;SDS011;51077;42.716;23.344;2023-06-22T09:10:16;7.33;;;5.90;;
64667;SDS011;51077;42.716;23.344;2023-06-22T09:12:42;7.80;;;5.57;;
64667;SDS011;51077;42.716;23.344;2023-06-22T09:15:08;8.70;;;5.80;;
64667;SDS011;51077;42.716;23.344;2023-06-22T09:17:34;8.03;;;5.50;;
64667;SDS011;51077;42.716;23.344;2023-06-22T09:20:00;8.43;;;6.67;;
64667;SDS011;51077;42.716;23.344;2023-06-22T09:22:27;7.67;;;5.67;;
64667;SDS011;51077;42.716;23.344;2023-06-22T09:24:54;7.17;;;5.77;;
64667;SDS011;51077;42.716;23.344;2023-06-22T09:27:21;10.07;;;5.80;;
64667;SDS011;51077;42.716;23.344;2023-06-22T09:29:47;7.50;;;5.97;;
64667;SDS011;51077;42.716;23.344;2023-06-22T09:32:12;7.67;;;5.50;;
64667;SDS011;51077;42.716;23.344;2023-06-22T09:34:38;7.77;;;5.90;;
64667;SDS011;51077;42.716;23.344;2023-06-22T09:37:03;10.03;;;6.33;;
64667;SDS011;51077;42.716;23.344;2023-06-22T09:39:29;6.60;;;5.37;;
64667;SDS011;51077;42.716;23.344;2023-06-22T09:41:54;6.37;;;5.30;;
64667;SDS011;51077;42.716;23.344;2023-06-22T09:44:20;7.80;;;5.50;;
64667;SDS011;51077;42.716;23.344;2023-06-22T09:46:45;7.17;;;5.10;;
64667;SDS011;51077;42.716;23.344;2023-06-22T09:49:11;7.90;;;5.70;;
64667;SDS011;51077;42.716;23.344;2023-06-22T09:51:36;8.57;;;5.83;;
64667;SDS011;51077;42.716;23.344;2023-06-22T09:54:01;7.70;;;5.53;;
64667;SDS011;51077;42.716;23.344;2023-06-22T09:56:27;6.77;;;6.07;;
64667;SDS011;51077;42.716;23.344;2023-06-22T09:58:53;8.17;;;5.93;;
64667;SDS011;51077;42.716;23.344;2023-06-22T10:01:19;6.27;;;5.67;;
64667;SDS011;51077;42.716;23.344;2023-06-22T10:03:45;8.27;;;6.03;;
64667;SDS011;51077;42.716;23.344;2023-06-22T10:06:11;8.00;;;5.70;;
64667;SDS011;51077;42.716;23.344;2023-06-22T10:08:36;8.93;;;5.97;;
64667;SDS011;51077;42.716;23.344;2023-06-22T10:11:02;6.20;;;5.60;;
64667;SDS011;51077;42.716;23.344;2023-06-22T10:13:28;9.33;;;6.13;;
64667;SDS011;51077;42.716;23.344;2023-06-22T10:15:54;7.70;;;5.53;;
64667;SDS011;51077;42.716;23.344;2023-06-22T10:18:19;9.30;;;5.83;;
64667;SDS011;51077;42.716;23.344;2023-06-22T10:20:47;6.70;;;5.30;;
64667;SDS011;51077;42.716;23.344;2023-06-22T10:23:14;7.17;;;6.13;;
64667;SDS011;51077;42.716;23.344;2023-06-22T10:25:39;8.27;;;6.23;;
64667;SDS011;51077;42.716;23.344;2023-06-22T10:28:05;8.97;;;5.83;;
64667;SDS011;51077;42.716;23.344;2023-06-22T10:30:30;9.43;;;5.60;;
64667;SDS011;51077;42.716;23.344;2023-06-22T10:32:55;6.53;;;5.57;;
64667;SDS011;51077;42.716;23.344;2023-06-22T10:35:21;6.77;;;5.40;;
64667;SDS011;51077;42.716;23.344;2023-06-22T10:37:46;6.33;;;5.50;;
64667;SDS011;51077;42.716;23.344;2023-06-22T10:40:13;9.70;;;5.60;;
64667;SDS011;51077;42.716;23.344;2023-06-22T10:42:40;7.53;;;5.87;;
64667;SDS011;51077;42.716;23.344;2023-06-22T10:45:06;8.47;;;5.80;;
64667;SDS011;51077;42.716;23.344;2023-06-22T10:47:32;8.97;;;5.63;;
64667;SDS011;51077;42.716;23.344;2023-06-22T10:49:58;8.33;;;5.73;;
64667;SDS011;51077;42.716;23.344;2023-06-22T10:52:23;5.83;;;5.23;;
64667;SDS011;51077;42.716;23.344;2023-06-22T10:54:49;10.57;;;5.97;;
64667;SDS011;51077;42.716;23.344;2023-06-22T10:57:14;6.80;;;5.50;;
64667;SDS011;51077;42.716;23.344;2023-06-22T10:59:40;5.87;;;5.10;;
64667;SDS011;51077;42.716;23.344;2023-06-22T11:02:05;6.33;;;5.60;;
64667;SDS011;51077;42.716;23.344;2023-06-22T11:04:31;5.43;;;4.93;;
64667;SDS011;51077;42.716;23.344;2023-06-22T11:06:56;7.17;;;5.10;;
64667;SDS011;51077;42.716;23.344;2023-06-22T11:09:21;8.57;;;5.07;;
64667;SDS011;51077;42.716;23.344;2023-06-22T11:11:47;6.57;;;4.87;;
64667;SDS011;51077;42.716;23.344;2023-06-22T11:14:14;5.97;;;4.97;;
64667;SDS011;51077;42.716;23.344;2023-06-22T11:16:40;5.97;;;5.33;;
64667;SDS011;51077;42.716;23.344;2023-06-22T11:19:05;8.03;;;5.30;;
64667;SDS011;51077;42.716;23.344;2023-06-22T11:21:31;5.67;;;4.77;;
64667;SDS011;51077;42.716;23.344;2023-06-22T11:23:57;6.80;;;4.70;;
64667;SDS011;51077;42.716;23.344;2023-06-22T11:26:23;5.23;;;4.63;;
64667;SDS011;51077;42.716;23.344;2023-06-22T11:28:50;5.67;;;5.10;;
64667;SDS011;51077;42.716;23.344;2023-06-22T11:31:15;6.23;;;5.37;;
64667;SDS011;51077;42.716;23.344;2023-06-22T11:33:41;5.63;;;5.00;;
64667;SDS011;51077;42.716;23.344;2023-06-22T11:36:06;7.47;;;5.00;;
64667;SDS011;51077;42.716;23.344;2023-06-22T11:38:31;6.67;;;5.60;;
64667;SDS011;51077;42.716;23.344;2023-06-22T11:40:58;5.80;;;5.20;;
64667;SDS011;51077;42.716;23.344;2023-06-22T11:43:24;7.90;;;5.40;;
64667;SDS011;51077;42.716;23.344;2023-06-22T11:45:50;5.77;;;5.17;;
64667;SDS011;51077;42.716;23.344;2023-06-22T11:48:15;8.43;;;4.83;;
64667;SDS011;51077;42.716;23.344;2023-06-22T11:50:40;6.63;;;5.10;;
64667;SDS011;51077;42.716;23.344;2023-06-22T11:53:06;6.63;;;5.30;;
64667;SDS011;51077;42.716;23.344;2023-06-22T11:55:31;5.50;;;4.90;;
64667;SDS011;51077;42.716;23.344;2023-06-22T11:57:57;5.93;;;4.80;;
64667;SDS011;51077;42.716;23.344;2023-06-22T12:00:28;6.43;;;4.90;;
64667;SDS011;51077;42.716;23.344;2023-06-22T12:02:54;7.80;;;5.37;;
64667;SDS011;51077;42.716;23.344;2023-06-22T12:05:21;8.70;;;5.13;;
64667;SDS011;51077;42.716;23.344;2023-06-22T12:07:47;5.40;;;4.57;;
64667;SDS011;51077;42.716;23.344;2023-06-22T12:10:13;6.07;;;5.33;;
64667;SDS011;51077;42.716;23.344;2023-06-22T12:12:38;6.70;;;5.13;;
64667;SDS011;51077;42.716;23.344;2023-06-22T12:15:04;5.40;;;4.90;;
64667;SDS011;51077;42.716;23.344;2023-06-22T12:17:30;5.53;;;4.70;;
64667;SDS011;51077;42.716;23.344;2023-06-22T12:19:56;7.80;;;5.07;;
64667;SDS011;51077;42.716;23.344;2023-06-22T12:22:21;6.03;;;5.00;;
64667;SDS011;51077;42.716;23.344;2023-06-22T12:24:47;6.10;;;5.50;;
64667;SDS011;51077;42.716;23.344;2023-06-22T12:27:12;9.60;;;5.30;;
64667;SDS011;51077;42.716;23.344;2023-06-22T12:29:37;7.07;;;5.43;;
64667;SDS011;51077;42.716;23.344;2023-06-22T12:32:03;6.83;;;5.90;;
64667;SDS011;51077;42.716;23.344;2023-06-22T12:34:29;10.97;;;6.13;;
64667;SDS011;51077;42.716;23.344;2023-06-22T12:36:54;8.07;;;5.70;;
64667;SDS011;51077;42.716;23.344;2023-06-22T12:39:20;7.03;;;5.57;;
64667;SDS011;51077;42.716;23.344;2023-06-22T12:41:45;7.87;;;5.60;;
64667;SDS011;51077;42.716;23.344;2023-06-22T12:44:11;5.90;;;5.03;;
64667;SDS011;51077;42.716;23.344;2023-06-22T12:46:36;7.60;;;5.03;;
64667;SDS011;51077;42.716;23.344;2023-06-22T12:49:03;8.52;;;4.90;;
64667;SDS011;51077;42.716;23.344;2023-06-22T12:51:29;7.68;;;5.63;;
64667;SDS011;51077;42.716;23.344;2023-06-22T12:53:55;8.23;;;5.47;;
64667;SDS011;51077;42.716;23.344;2023-06-22T12:56:20;11.10;;;5.53;;
64667;SDS011;51077;42.716;23.344;2023-06-22T12:58:46;9.17;;;6.37;;
64667;SDS011;51077;42.716;23.344;2023-06-22T13:01:11;10.23;;;5.57;;
64667;SDS011;51077;42.716;23.344;2023-06-22T13:03:37;8.30;;;6.07;;
64667;SDS011;51077;42.716;23.344;2023-06-22T13:06:02;8.73;;;5.20;;
64667;SDS011;51077;42.716;23.344;2023-06-22T13:08:28;6.80;;;5.20;;
64667;SDS011;51077;42.716;23.344;2023-06-22T13:10:54;11.00;;;4.87;;
64667;SDS011;51077;42.716;23.344;2023-06-22T13:13:23;9.05;;;5.40;;
64667;SDS011;51077;42.716;23.344;2023-06-22T13:15:49;8.50;;;4.90;;
64667;SDS011;51077;42.716;23.344;2023-06-22T13:18:15;7.70;;;5.40;;
64667;SDS011;51077;42.716;23.344;2023-06-22T13:20:40;7.80;;;5.63;;
64667;SDS011;51077;42.716;23.344;2023-06-22T13:23:06;10.70;;;6.13;;
64667;SDS011;51077;42.716;23.344;2023-06-22T13:25:31;8.77;;;5.77;;
64667;SDS011;51077;42.716;23.344;2023-06-22T13:27:57;7.97;;;5.57;;
64667;SDS011;51077;42.716;23.344;2023-06-22T13:30:22;14.40;;;5.93;;
64667;SDS011;51077;42.716;23.344;2023-06-22T13:32:48;8.63;;;5.43;;
64667;SDS011;51077;42.716;23.344;2023-06-22T13:35:13;7.77;;;5.67;;
64667;SDS011;51077;42.716;23.344;2023-06-22T13:37:38;9.60;;;5.73;;
64667;SDS011;51077;42.716;23.344;2023-06-22T13:40:05;9.70;;;6.30;;
64667;SDS011;51077;42.716;23.344;2023-06-22T13:42:32;10.45;;;6.70;;
64667;SDS011;51077;42.716;23.344;2023-06-22T13:44:58;10.70;;;6.10;;
64667;SDS011;51077;42.716;23.344;2023-06-22T13:47:23;10.97;;;7.17;;
64667;SDS011;51077;42.716;23.344;2023-06-22T13:49:49;8.97;;;6.50;;
64667;SDS011;51077;42.716;23.344;2023-06-22T13:52:14;9.30;;;6.57;;
64667;SDS011;51077;42.716;23.344;2023-06-22T13:54:40;10.57;;;6.73;;
64667;SDS011;51077;42.716;23.344;2023-06-22T13:57:05;7.90;;;6.43;;
64667;SDS011;51077;42.716;23.344;2023-06-22T13:59:31;10.43;;;6.77;;
64667;SDS011;51077;42.716;23.344;2023-06-22T14:01:57;11.57;;;6.90;;
64667;SDS011;51077;42.716;23.344;2023-06-22T14:04:25;10.60;;;6.40;;
64667;SDS011;51077;42.716;23.344;2023-06-22T14:06:51;10.10;;;7.18;;
64667;SDS011;51077;42.716;23.344;2023-06-22T14:09:16;10.13;;;6.83;;
64667;SDS011;51077;42.716;23.344;2023-06-22T14:11:42;8.73;;;6.57;;
64667;SDS011;51077;42.716;23.344;2023-06-22T14:14:07;12.33;;;6.60;;
64667;SDS011;51077;42.716;23.344;2023-06-22T14:16:33;11.03;;;6.70;;
64667;SDS011;51077;42.716;23.344;2023-06-22T14:18:58;13.37;;;6.80;;
64667;SDS011;51077;42.716;23.344;2023-06-22T14:21:24;10.23;;;6.13;;
64667;SDS011;51077;42.716;23.344;2023-06-22T14:23:50;11.18;;;6.22;;
64667;SDS011;51077;42.716;23.344;2023-06-22T14:26:16;9.53;;;5.93;;
64667;SDS011;51077;42.716;23.344;2023-06-22T14:28:43;10.40;;;5.47;;
64667;SDS011;51077;42.716;23.344;2023-06-22T14:31:17;8.55;;;5.80;;
64667;SDS011;51077;42.716;23.344;2023-06-22T14:33:47;11.35;;;6.10;;
64667;SDS011;51077;42.716;23.344;2023-06-22T14:36:14;11.77;;;6.30;;
64667;SDS011;51077;42.716;23.344;2023-06-22T14:38:40;12.80;;;6.40;;
64667;SDS011;51077;42.716;23.344;2023-06-22T14:41:06;9.07;;;6.40;;
64667;SDS011;51077;42.716;23.344;2023-06-22T14:43:31;10.87;;;6.13;;
64667;SDS011;51077;42.716;23.344;2023-06-22T14:45:57;9.27;;;6.00;;